createdAt,value
2023-05-11T00:00:44.438Z,5.05
2023-05-11T00:03:11.925Z,4.47
2023-05-11T00:05:39.665Z,4.65
2023-05-11T00:08:07.158Z,4.97
2023-05-11T00:10:34.611Z,4.82
2023-05-11T00:13:01.934Z,4.95
2023-05-11T00:15:29.468Z,4.75
2023-05-11T00:17:57.069Z,4.63
2023-05-11T00:20:24.662Z,4.85
2023-05-11T00:22:52.030Z,5.40
2023-05-11T00:25:19.442Z,5.38
2023-05-11T00:27:47.146Z,5.22
2023-05-11T00:30:16.008Z,5.47
2023-05-11T00:32:44.721Z,5.85
2023-05-11T00:35:12.406Z,5.88
2023-05-11T00:37:39.921Z,6.30
2023-05-11T00:40:08.222Z,6.50
2023-05-11T00:42:35.731Z,6.15
2023-05-11T00:45:03.321Z,5.80
2023-05-11T00:47:31.058Z,5.93
2023-05-11T00:49:58.687Z,5.85
2023-05-11T00:52:26.285Z,5.47
2023-05-11T00:54:53.735Z,5.72
2023-05-11T00:57:21.805Z,5.70
2023-05-11T00:59:49.768Z,5.90
2023-05-11T01:02:18.520Z,6.07
2023-05-11T01:04:46.405Z,5.53
2023-05-11T01:07:37.577Z,5.40
2023-05-11T01:10:32.515Z,5.15
2023-05-11T01:13:07.704Z,5.47
2023-05-11T01:15:45.094Z,5.30
2023-05-11T01:18:23.198Z,5.10
2023-05-11T01:20:55.461Z,5.43
2023-05-11T01:23:30.673Z,4.97
2023-05-11T01:26:24.103Z,5.20
2023-05-11T01:29:25.580Z,5.03
2023-05-11T01:31:55.809Z,5.13
2023-05-11T01:34:26.637Z,5.18
2023-05-11T01:37:01.377Z,5.22
2023-05-11T01:39:37.508Z,5.50
2023-05-11T01:42:09.716Z,5.97
2023-05-11T01:44:44.609Z,5.38
2023-05-11T01:47:14.341Z,5.72
2023-05-11T01:49:44.346Z,5.45
2023-05-11T01:52:13.925Z,5.53
2023-05-11T01:54:44.208Z,5.70
2023-05-11T01:57:13.127Z,5.65
2023-05-11T01:59:41.387Z,5.88
2023-05-11T02:02:09.947Z,5.85
2023-05-11T02:04:39.541Z,6.22
2023-05-11T02:07:11.158Z,5.63
2023-05-11T02:09:39.744Z,5.50
2023-05-11T02:12:09.033Z,5.43
2023-05-11T02:14:37.979Z,5.55
2023-05-11T02:17:07.694Z,5.50
2023-05-11T02:19:37.077Z,5.80
2023-05-11T02:22:06.142Z,5.55
2023-05-11T02:24:34.613Z,5.57
2023-05-11T02:27:02.343Z,5.20
2023-05-11T02:29:30.040Z,5.70
2023-05-11T02:32:12.580Z,5.28
2023-05-11T02:34:43.473Z,5.40
2023-05-11T02:37:15.425Z,5.55
2023-05-11T02:39:46.553Z,5.25
2023-05-11T02:42:21.289Z,5.80
2023-05-11T02:44:58.138Z,5.45
2023-05-11T02:47:32.950Z,5.03
2023-05-11T02:50:04.382Z,5.20
2023-05-11T02:52:33.602Z,5.30
2023-05-11T02:55:02.626Z,4.78
2023-05-11T02:57:31.733Z,4.80
2023-05-11T02:59:59.724Z,5.03
2023-05-11T03:02:27.363Z,4.88
2023-05-11T03:04:54.974Z,5.13
2023-05-11T03:07:22.613Z,4.93
2023-05-11T03:09:50.135Z,4.55
2023-05-11T03:12:17.660Z,5.05
2023-05-11T03:14:45.221Z,4.90
2023-05-11T03:17:15.063Z,4.55
2023-05-11T03:19:43.168Z,5.00
2023-05-11T03:22:11.310Z,5.35
2023-05-11T03:24:39.465Z,4.90
2023-05-11T03:27:09.117Z,5.15
2023-05-11T03:29:40.219Z,4.43
2023-05-11T03:32:07.751Z,4.78
2023-05-11T03:34:35.345Z,4.40
2023-05-11T03:37:04.653Z,4.60
2023-05-11T03:39:33.560Z,4.70
2023-05-11T03:42:01.915Z,4.80
2023-05-11T03:44:31.707Z,4.80
2023-05-11T03:47:01.765Z,4.28
2023-05-11T03:49:29.641Z,4.50
2023-05-11T03:51:57.845Z,4.68
2023-05-11T03:54:25.368Z,4.97
2023-05-11T03:56:53.155Z,5.10
2023-05-11T03:59:21.246Z,5.03
2023-05-11T04:01:53.098Z,4.80
2023-05-11T04:04:21.526Z,5.07
2023-05-11T04:06:48.913Z,4.95
2023-05-11T04:09:16.771Z,5.07
2023-05-11T04:11:44.623Z,5.25
2023-05-11T04:14:12.108Z,5.25
2023-05-11T04:16:39.661Z,5.10
2023-05-11T04:19:07.673Z,5.53
2023-05-11T04:21:36.553Z,5.35
2023-05-11T04:24:04.560Z,5.00
2023-05-11T04:26:31.909Z,6.22
2023-05-11T04:28:59.342Z,5.40
2023-05-11T04:31:26.933Z,5.30
2023-05-11T04:33:54.294Z,5.75
2023-05-11T04:36:23.922Z,5.07
2023-05-11T04:38:53.368Z,5.45
2023-05-11T04:41:22.849Z,5.05
2023-05-11T04:43:50.192Z,5.00
2023-05-11T04:46:17.870Z,5.40
2023-05-11T04:48:45.436Z,4.95
2023-05-11T04:51:12.807Z,5.03
2023-05-11T04:53:42.411Z,4.43
2023-05-11T04:56:11.303Z,4.63
2023-05-11T04:58:38.757Z,4.90
2023-05-11T05:01:06.288Z,5.20
2023-05-11T05:03:33.840Z,4.78
2023-05-11T05:06:01.224Z,4.53
2023-05-11T05:08:28.624Z,4.82
2023-05-11T05:10:57.651Z,4.43
2023-05-11T05:13:25.582Z,4.95
2023-05-11T05:15:54.066Z,4.30
2023-05-11T05:18:21.573Z,4.28
2023-05-11T05:20:49.037Z,3.70
2023-05-11T05:23:16.907Z,4.10
2023-05-11T05:25:44.578Z,4.13
2023-05-11T05:28:12.424Z,4.10
2023-05-11T05:30:40.846Z,3.88
2023-05-11T05:33:19.179Z,3.88
2023-05-11T05:35:47.108Z,3.38
2023-05-11T05:38:14.954Z,4.28
2023-05-11T05:40:42.888Z,3.80
2023-05-11T05:43:15.908Z,4.20
2023-05-11T05:45:43.419Z,3.78
2023-05-11T05:48:11.192Z,3.80
2023-05-11T05:50:39.102Z,4.00
2023-05-11T05:53:07.687Z,3.60
2023-05-11T05:55:35.266Z,3.80
2023-05-11T05:58:03.055Z,3.35
2023-05-11T06:00:31.415Z,3.20
2023-05-11T06:02:59.222Z,3.40
2023-05-11T06:05:30.952Z,3.40
2023-05-11T06:08:10.015Z,3.80
2023-05-11T06:10:39.596Z,3.10
2023-05-11T06:13:08.873Z,6.00
2023-05-11T06:15:37.954Z,3.05
2023-05-11T06:18:06.079Z,3.33
2023-05-11T06:20:37.498Z,3.40
2023-05-11T06:23:06.391Z,3.42
2023-05-11T06:25:39.980Z,3.40
2023-05-11T06:28:12.764Z,3.42
2023-05-11T06:30:46.365Z,3.55
2023-05-11T06:33:14.951Z,3.10
2023-05-11T06:35:42.675Z,3.55
2023-05-11T06:38:10.197Z,3.22
2023-05-11T06:40:49.252Z,3.13
2023-05-11T06:43:20.316Z,2.97
2023-05-11T06:46:11.005Z,3.17
2023-05-11T06:48:43.245Z,3.30
2023-05-11T06:51:17.367Z,2.85
2023-05-11T06:53:52.888Z,3.08
2023-05-11T06:56:20.747Z,3.30
2023-05-11T06:58:49.274Z,3.47
2023-05-11T07:01:19.495Z,3.35
2023-05-11T07:03:54.825Z,3.25
2023-05-11T07:06:34.088Z,3.17
2023-05-11T07:09:02.150Z,3.30
2023-05-11T07:11:37.378Z,3.55
2023-05-11T07:14:07.662Z,3.20
2023-05-11T07:16:41.454Z,3.50
2023-05-11T07:19:11.690Z,3.50
2023-05-11T07:21:41.076Z,3.25
2023-05-11T07:24:09.852Z,3.50
2023-05-11T07:26:45.322Z,3.20
2023-05-11T07:29:15.319Z,3.65
2023-05-11T07:31:56.653Z,3.45
2023-05-11T07:34:32.552Z,3.70
2023-05-11T07:37:05.383Z,2.95
2023-05-11T07:39:41.494Z,3.30
2023-05-11T07:42:13.636Z,3.38
2023-05-11T07:44:45.438Z,3.20
2023-05-11T07:47:16.707Z,2.88
2023-05-11T07:49:49.204Z,2.85
2023-05-11T07:52:29.408Z,3.13
2023-05-11T07:55:02.068Z,3.17
2023-05-11T07:57:30.959Z,3.25
2023-05-11T08:00:05.158Z,3.28
2023-05-11T08:02:36.529Z,3.72
2023-05-11T08:07:46.744Z,3.03
2023-05-11T08:10:15.184Z,2.67
2023-05-11T08:12:44.382Z,3.05
2023-05-11T08:15:17.694Z,3.08
2023-05-11T08:17:46.563Z,3.10
2023-05-11T08:20:15.705Z,3.25
2023-05-11T08:22:45.008Z,3.05
2023-05-11T08:25:15.807Z,3.15
2023-05-11T08:27:46.818Z,3.03
2023-05-11T08:30:19.061Z,3.38
2023-05-11T08:32:57.801Z,3.00
2023-05-11T08:35:29.120Z,2.85
2023-05-11T08:37:59.367Z,3.25
2023-05-11T08:40:33.857Z,3.30
2023-05-11T08:43:16.507Z,3.30
2023-05-11T08:45:59.092Z,3.47
2023-05-11T08:48:30.302Z,3.05
2023-05-11T08:51:02.566Z,3.13
2023-05-11T08:53:37.198Z,3.17
2023-05-11T08:56:12.372Z,2.97
2023-05-11T08:58:43.076Z,3.17
2023-05-11T09:01:15.081Z,3.30
2023-05-11T09:03:43.632Z,3.22
2023-05-11T09:06:13.037Z,3.20
2023-05-11T09:08:40.998Z,2.85
2023-05-11T09:11:09.062Z,3.53
2023-05-11T09:13:36.654Z,3.10
2023-05-11T09:16:23.458Z,3.42
2023-05-11T09:19:04.069Z,3.53
2023-05-11T09:21:54.458Z,3.42
2023-05-11T09:24:24.997Z,3.20
2023-05-11T09:27:11.157Z,3.35
2023-05-11T09:29:39.671Z,3.30
2023-05-11T09:32:17.719Z,3.08
2023-05-11T09:34:50.845Z,3.30
2023-05-11T09:37:31.446Z,3.00
2023-05-11T09:40:33.389Z,3.03
2023-05-11T09:42:54.520Z,3.25
2023-05-11T09:45:43.573Z,3.22
2023-05-11T09:48:26.202Z,3.28
2023-05-11T09:51:04.098Z,3.22
2023-05-11T09:53:49.395Z,3.42
2023-05-11T09:56:23.289Z,3.30
2023-05-11T09:59:00.212Z,3.35
2023-05-11T10:01:38.970Z,3.20
2023-05-11T10:04:22.773Z,3.40
2023-05-11T10:06:58.253Z,3.25
2023-05-11T10:09:27.464Z,2.97
2023-05-11T10:11:56.756Z,3.78
2023-05-11T10:14:35.415Z,3.38
2023-05-11T10:17:20.294Z,3.60
2023-05-11T10:20:00.765Z,3.35
2023-05-11T10:22:31.912Z,3.30
2023-05-11T10:25:07.041Z,3.20
2023-05-11T10:30:21.358Z,3.30
2023-05-11T10:33:06.230Z,3.28
2023-05-11T10:35:37.516Z,3.53
2023-05-11T10:38:11.502Z,3.53
2023-05-11T10:44:31.326Z,3.40
2023-05-11T10:47:43.870Z,3.33
2023-05-11T10:57:26.590Z,3.72
2023-05-11T11:00:21.217Z,3.50
2023-05-11T11:05:42.801Z,3.50
2023-05-11T11:08:12.257Z,3.33
2023-05-11T11:10:49.607Z,3.65
2023-05-11T11:13:26.933Z,3.08
2023-05-11T11:17:01.766Z,3.40
2023-05-11T11:19:29.984Z,3.50
2023-05-11T11:22:02.234Z,3.30
2023-05-11T11:24:39.209Z,3.20
2023-05-11T11:27:08.510Z,3.33
2023-05-11T11:29:38.111Z,3.40
2023-05-11T11:32:35.517Z,3.85
2023-05-11T11:35:05.154Z,3.33
2023-05-11T11:38:03.367Z,3.50
2023-05-11T11:41:50.803Z,3.45
2023-05-11T11:44:24.388Z,3.28
2023-05-11T11:47:58.416Z,3.30
2023-05-11T11:57:55.792Z,2.17
2023-05-11T12:01:04.998Z,2.95
2023-05-11T12:04:26.045Z,2.78
2023-05-11T12:10:39.843Z,2.25
2023-05-11T12:18:15.345Z,2.65
2023-05-11T12:20:43.249Z,2.78
2023-05-11T12:23:12.577Z,2.53
2023-05-11T12:25:42.694Z,2.72
2023-05-11T12:28:13.047Z,3.15
2023-05-11T12:30:45.853Z,1.95
2023-05-11T12:33:15.395Z,3.17
2023-05-11T12:35:46.851Z,3.00
2023-05-11T12:38:16.254Z,2.75
2023-05-11T12:40:54.445Z,2.60
2023-05-11T12:43:23.983Z,3.15
2023-05-11T12:45:55.681Z,2.95
2023-05-11T12:48:25.544Z,2.83
2023-05-11T12:50:55.161Z,3.08
2023-05-11T12:53:24.293Z,2.60
2023-05-11T12:55:59.268Z,2.80
2023-05-11T12:58:26.707Z,3.08
2023-05-11T13:00:56.512Z,2.90
2023-05-11T13:03:29.213Z,2.88
2023-05-11T13:06:13.072Z,2.90
2023-05-11T13:08:46.033Z,3.42
2023-05-11T13:11:23.291Z,3.13
2023-05-11T13:13:55.189Z,2.70
2023-05-11T13:16:28.750Z,2.85
2023-05-11T13:19:08.744Z,2.80
2023-05-11T13:21:36.308Z,2.80
2023-05-11T13:24:04.271Z,3.03
2023-05-11T13:26:32.776Z,2.78
2023-05-11T13:29:09.337Z,2.90
2023-05-11T13:31:52.699Z,3.42
2023-05-11T13:34:20.927Z,2.88
2023-05-11T13:36:48.813Z,2.80
2023-05-11T13:39:16.419Z,2.90
2023-05-11T13:41:44.012Z,2.90
2023-05-11T13:44:11.637Z,2.85
2023-05-11T13:46:39.244Z,2.90
2023-05-11T13:49:06.997Z,3.05
2023-05-11T13:51:34.595Z,2.90
2023-05-11T13:54:03.051Z,2.72
2023-05-11T13:56:31.850Z,2.53
2023-05-11T13:59:00.116Z,3.25
2023-05-11T14:01:28.010Z,2.95
2023-05-11T14:03:57.621Z,2.97
2023-05-11T14:06:26.253Z,3.00
2023-05-11T14:08:54.380Z,2.75
2023-05-11T14:11:21.978Z,3.13
2023-05-11T14:13:50.094Z,3.17
2023-05-11T14:16:19.049Z,3.03
2023-05-11T14:18:47.358Z,2.63
2023-05-11T14:21:15.242Z,2.78
2023-05-11T14:23:53.141Z,3.17
2023-05-11T14:26:29.905Z,2.55
2023-05-11T14:28:57.851Z,2.75
2023-05-11T14:31:26.466Z,2.72
2023-05-11T14:33:54.022Z,3.03
2023-05-11T14:36:21.755Z,2.90
2023-05-11T14:38:49.235Z,2.70
2023-05-11T14:41:16.982Z,2.90
2023-05-11T14:43:44.430Z,3.17
2023-05-11T14:46:12.120Z,3.33
2023-05-11T14:48:39.529Z,2.90
2023-05-11T14:51:07.501Z,2.67
2023-05-11T14:53:35.314Z,2.65
2023-05-11T14:56:02.874Z,3.10
2023-05-11T14:58:30.370Z,2.72
2023-05-11T15:00:57.929Z,2.80
2023-05-11T15:03:25.434Z,3.08
2023-05-11T15:05:52.961Z,2.97
2023-05-11T15:08:29.696Z,2.78
2023-05-11T15:10:58.309Z,2.88
2023-05-11T15:13:26.104Z,3.00
2023-05-11T15:15:53.548Z,2.83
2023-05-11T15:18:21.072Z,2.97
2023-05-11T15:20:49.122Z,3.00
2023-05-11T15:23:17.316Z,3.10
2023-05-11T15:25:45.382Z,2.55
2023-05-11T15:28:14.599Z,2.88
2023-05-11T15:30:42.943Z,3.03
2023-05-11T15:33:11.628Z,2.97
2023-05-11T15:35:39.088Z,2.80
2023-05-11T15:38:06.767Z,3.03
2023-05-11T15:40:34.581Z,2.97
2023-05-11T15:43:04.132Z,3.03
2023-05-11T15:45:31.738Z,3.20
2023-05-11T15:48:02.556Z,2.92
2023-05-11T15:50:30.195Z,3.00
2023-05-11T15:52:58.000Z,2.80
2023-05-11T15:55:25.729Z,3.25
2023-05-11T15:57:55.905Z,3.10
2023-05-11T16:00:23.259Z,3.00
2023-05-11T16:02:50.877Z,3.05
2023-05-11T16:05:21.035Z,2.70
2023-05-11T16:07:48.693Z,3.13
2023-05-11T16:10:16.278Z,3.10
2023-05-11T16:12:43.725Z,2.80
2023-05-11T16:15:12.505Z,2.83
2023-05-11T16:17:40.338Z,2.70
2023-05-11T16:20:08.528Z,2.70
2023-05-11T16:22:37.421Z,2.90
2023-05-11T16:25:06.019Z,3.10
2023-05-11T16:27:33.494Z,2.78
2023-05-11T16:30:08.310Z,2.70
2023-05-11T16:32:44.144Z,2.60
2023-05-11T16:35:11.646Z,3.05
2023-05-11T16:37:39.360Z,3.13
2023-05-11T16:40:07.806Z,2.83
2023-05-11T16:42:35.285Z,2.90
2023-05-11T16:45:07.330Z,3.15
2023-05-11T16:47:34.887Z,3.63
2023-05-11T16:50:02.325Z,3.05
2023-05-11T16:52:29.656Z,2.85
2023-05-11T16:54:58.974Z,2.50
2023-05-11T16:57:26.960Z,2.90
2023-05-11T16:59:54.339Z,2.95
2023-05-11T17:02:21.911Z,2.88
2023-05-11T17:04:49.640Z,2.97
2023-05-11T17:07:17.238Z,2.75
2023-05-11T17:09:45.681Z,2.90
2023-05-11T17:12:13.358Z,2.50
2023-05-11T17:14:40.781Z,3.00
2023-05-11T17:17:08.243Z,2.88
2023-05-11T17:19:35.735Z,2.70
2023-05-11T17:22:03.532Z,2.72
2023-05-11T17:24:32.506Z,2.53
2023-05-11T17:27:00.450Z,2.60
2023-05-11T17:29:28.812Z,2.50
2023-05-11T17:31:56.307Z,2.47
2023-05-11T17:34:26.032Z,2.70
2023-05-11T17:36:56.770Z,2.55
2023-05-11T17:39:26.867Z,2.70
2023-05-11T17:41:54.358Z,2.70
2023-05-11T17:44:22.025Z,2.90
2023-05-11T17:46:50.493Z,3.30
2023-05-11T17:49:17.915Z,2.80
2023-05-11T17:51:46.856Z,2.80
2023-05-11T17:54:14.370Z,2.80
2023-05-11T17:56:41.854Z,3.35
2023-05-11T17:59:09.322Z,3.13
2023-05-11T18:01:36.853Z,3.00
2023-05-11T18:04:04.810Z,2.88
2023-05-11T18:06:32.756Z,3.17
2023-05-11T18:09:00.245Z,3.15
2023-05-11T18:11:27.910Z,2.90
2023-05-11T18:13:55.278Z,3.35
2023-05-11T18:16:22.817Z,2.97
2023-05-11T18:18:50.534Z,3.47
2023-05-11T18:21:18.804Z,3.40
2023-05-11T18:23:46.603Z,3.33
2023-05-11T18:26:14.390Z,3.63
2023-05-11T18:28:42.045Z,3.55
2023-05-11T18:31:09.575Z,3.50
2023-05-11T18:33:37.247Z,3.55
2023-05-11T18:36:04.826Z,3.53
2023-05-11T18:38:32.314Z,3.78
2023-05-11T18:41:05.249Z,3.30
2023-05-11T18:43:34.537Z,3.63
2023-05-11T18:46:06.590Z,3.70
2023-05-11T18:48:34.248Z,3.70
2023-05-11T18:51:01.783Z,3.40
2023-05-11T18:53:29.328Z,3.50
2023-05-11T18:55:56.807Z,3.70
2023-05-11T18:58:24.267Z,3.90
2023-05-11T19:00:52.274Z,3.70
2023-05-11T19:03:21.040Z,3.80
2023-05-11T19:05:49.136Z,3.60
2023-05-11T19:08:16.896Z,3.60
2023-05-11T19:10:45.638Z,3.70
2023-05-11T19:13:13.583Z,3.45
2023-05-11T19:15:41.114Z,3.78
2023-05-11T19:18:08.581Z,3.58
2023-05-11T19:20:36.893Z,3.53
2023-05-11T19:23:05.124Z,4.05
2023-05-11T19:25:33.015Z,3.75
2023-05-11T19:28:00.366Z,3.83
2023-05-11T19:30:27.898Z,3.80
2023-05-11T19:32:55.307Z,3.90
2023-05-11T19:35:23.839Z,4.07
2023-05-11T19:37:51.293Z,3.85
2023-05-11T19:40:44.607Z,4.10
2023-05-11T19:43:08.301Z,5.65
2023-05-11T19:45:37.545Z,4.57
2023-05-11T19:48:05.185Z,4.10
2023-05-11T19:50:32.868Z,4.53
2023-05-11T19:53:00.460Z,4.30
2023-05-11T19:55:28.119Z,3.83
2023-05-11T19:57:55.564Z,4.32
2023-05-11T20:00:25.339Z,4.50
2023-05-11T20:02:53.299Z,3.53
2023-05-11T20:05:21.404Z,3.90
2023-05-11T20:07:48.856Z,3.80
2023-05-11T20:10:17.063Z,3.67
2023-05-11T20:12:44.731Z,3.88
2023-05-11T20:15:12.498Z,3.63
2023-05-11T20:17:39.941Z,3.60
2023-05-11T20:20:08.825Z,4.00
2023-05-11T20:22:37.313Z,3.83
2023-05-11T20:25:13.940Z,4.05
2023-05-11T20:27:45.249Z,3.72
2023-05-11T20:30:13.141Z,3.80
2023-05-11T20:34:06.732Z,3.78
2023-05-11T20:35:28.338Z,3.70
2023-05-11T20:37:56.123Z,3.78
2023-05-11T20:40:23.842Z,3.33
2023-05-11T20:42:51.219Z,3.65
2023-05-11T20:45:18.500Z,3.47
2023-05-11T20:47:46.034Z,3.53
2023-05-11T20:50:15.384Z,3.70
2023-05-11T20:52:42.811Z,3.13
2023-05-11T20:55:10.313Z,3.33
2023-05-11T20:57:37.953Z,3.33
2023-05-11T21:00:07.792Z,3.20
2023-05-11T21:02:35.413Z,3.42
2023-05-11T21:05:04.409Z,3.08
2023-05-11T21:07:33.348Z,3.60
2023-05-11T21:10:02.051Z,3.42
2023-05-11T21:12:29.473Z,3.45
2023-05-11T21:14:57.238Z,3.25
2023-05-11T21:17:24.901Z,3.42
2023-05-11T21:19:52.499Z,3.60
2023-05-11T21:22:20.129Z,3.40
2023-05-11T21:24:48.060Z,2.90
2023-05-11T21:27:15.480Z,3.45
2023-05-11T21:29:42.767Z,3.75
2023-05-11T21:32:10.564Z,3.60
2023-05-11T21:34:38.567Z,3.65
2023-05-11T21:37:06.059Z,3.38
2023-05-11T21:39:33.629Z,3.78
2023-05-11T21:42:01.842Z,3.35
2023-05-11T21:44:29.568Z,4.00
2023-05-11T21:46:57.217Z,3.38
2023-05-11T21:49:24.592Z,3.75
2023-05-11T21:51:52.421Z,3.45
2023-05-11T21:54:22.724Z,3.70
2023-05-11T21:56:52.163Z,4.00
2023-05-11T21:59:20.179Z,3.83
2023-05-11T22:01:49.816Z,3.53
2023-05-11T22:04:17.370Z,3.50
2023-05-11T22:06:44.809Z,3.55
2023-05-11T22:09:12.709Z,3.80
2023-05-11T22:11:40.183Z,3.42
2023-05-11T22:14:07.715Z,4.00
2023-05-11T22:16:35.289Z,3.50
2023-05-11T22:19:02.931Z,3.78
2023-05-11T22:21:30.297Z,4.05
2023-05-11T22:23:58.117Z,3.80
2023-05-11T22:26:26.574Z,3.90
2023-05-11T22:28:54.045Z,3.75
2023-05-11T22:31:21.410Z,3.85
2023-05-11T22:33:49.728Z,3.75
2023-05-11T22:36:17.057Z,3.67
2023-05-11T22:38:45.765Z,4.13
2023-05-11T22:41:13.176Z,4.10
2023-05-11T22:43:40.698Z,3.90
2023-05-11T22:46:08.729Z,3.72
2023-05-11T22:48:36.061Z,3.97
2023-05-11T22:51:06.451Z,3.50
2023-05-11T22:53:34.246Z,3.80
2023-05-11T22:56:06.539Z,3.70
2023-05-11T22:58:34.083Z,4.07
2023-05-11T23:01:01.819Z,4.03
2023-05-11T23:03:29.356Z,3.80
2023-05-11T23:05:56.784Z,3.85
2023-05-11T23:08:26.384Z,4.00
2023-05-11T23:10:54.125Z,4.03
2023-05-11T23:13:21.528Z,4.10
2023-05-11T23:15:49.395Z,3.83
2023-05-11T23:18:17.027Z,4.25
2023-05-11T23:20:44.621Z,3.42
2023-05-11T23:23:12.580Z,4.28
2023-05-11T23:25:40.531Z,3.80
2023-05-11T23:28:14.532Z,3.53
2023-05-11T23:30:42.277Z,4.15
2023-05-11T23:33:09.990Z,4.28
2023-05-11T23:35:37.623Z,4.25
2023-05-11T23:38:05.384Z,4.32
2023-05-11T23:40:32.939Z,3.80
2023-05-11T23:43:00.616Z,3.95
2023-05-11T23:45:28.184Z,4.07
2023-05-11T23:47:55.799Z,3.97
2023-05-11T23:50:23.385Z,3.90
2023-05-11T23:52:50.841Z,4.05
2023-05-11T23:55:18.317Z,3.85
2023-05-11T23:57:48.568Z,4.05
